createdAt,value
2017-04-13T00:00:58.208Z,0
2017-04-13T00:02:08.219Z,0
2017-04-13T00:03:17.945Z,0
2017-04-13T00:04:28.283Z,0
2017-04-13T00:05:38.002Z,0
2017-04-13T00:06:48.340Z,0
2017-04-13T00:07:58.673Z,0
2017-04-13T00:09:09.000Z,0
2017-04-13T00:10:19.331Z,0
2017-04-13T00:11:29.659Z,0
2017-04-13T00:12:40.034Z,0
2017-04-13T00:13:50.047Z,0
2017-04-13T00:15:00.387Z,0
2017-04-13T00:16:10.717Z,0
2017-04-13T00:17:21.055Z,0
2017-04-13T00:18:31.128Z,0
2017-04-13T00:19:41.454Z,0
2017-04-13T00:20:51.491Z,0
2017-04-13T00:22:01.511Z,0
2017-04-13T00:23:11.568Z,0
2017-04-13T00:24:21.919Z,0
2017-04-13T00:25:32.256Z,0
2017-04-13T00:26:42.279Z,0
2017-04-13T00:27:52.300Z,0
2017-04-13T00:29:02.672Z,0
2017-04-13T00:30:12.451Z,0
2017-04-13T00:31:22.790Z,0
2017-04-13T00:32:32.834Z,0
2017-04-13T00:33:42.591Z,0
2017-04-13T00:34:52.917Z,0
2017-04-13T00:36:02.325Z,0
2017-04-13T00:37:12.344Z,0
2017-04-13T00:38:22.678Z,0
2017-04-13T00:39:33.034Z,0
2017-04-13T00:40:43.419Z,0
2017-04-13T00:41:53.752Z,0
2017-04-13T00:43:03.468Z,0
2017-04-13T00:44:13.798Z,0
2017-04-13T00:45:24.151Z,0
2017-04-13T00:46:34.173Z,0
2017-04-13T00:47:44.510Z,0
2017-04-13T00:48:54.224Z,0
2017-04-13T00:50:04.312Z,0
2017-04-13T00:51:14.670Z,0
2017-04-13T00:52:24.997Z,0
2017-04-13T00:53:34.723Z,0
2017-04-13T00:54:44.749Z,0
2017-04-13T00:55:55.076Z,0
2017-04-13T00:57:04.790Z,0
2017-04-13T00:58:15.131Z,0
2017-04-13T00:59:24.888Z,0
2017-04-13T01:00:35.231Z,0
2017-04-13T01:01:45.272Z,0
2017-04-13T01:02:55.299Z,0
2017-04-13T01:04:05.333Z,0
2017-04-13T01:05:15.660Z,0
2017-04-13T01:06:25.994Z,0
2017-04-13T01:07:36.021Z,0
2017-04-13T01:08:46.056Z,0
2017-04-13T01:09:56.393Z,0
2017-04-13T01:11:06.730Z,0
2017-04-13T01:12:16.758Z,0
2017-04-13T01:13:27.117Z,0
2017-04-13T01:14:37.444Z,0
2017-04-13T01:15:47.480Z,0
2017-04-13T01:16:57.204Z,0
2017-04-13T01:18:07.530Z,0
2017-04-13T01:19:17.235Z,0
2017-04-13T01:20:27.278Z,0
2017-04-13T01:21:37.618Z,0
2017-04-13T01:22:48.011Z,0
2017-04-13T01:23:58.366Z,0
2017-04-13T01:25:08.686Z,0
2017-04-13T01:26:19.023Z,0
2017-04-13T01:27:29.052Z,0
2017-04-13T01:28:39.409Z,0
2017-04-13T01:29:49.447Z,0
2017-04-13T01:30:59.774Z,0
2017-04-13T01:32:09.798Z,0
2017-04-13T01:33:20.130Z,0
2017-04-13T01:34:30.518Z,0
2017-04-13T01:35:40.552Z,0
2017-04-13T01:36:50.892Z,0
2017-04-13T01:38:01.227Z,0
2017-04-13T01:39:11.564Z,0
2017-04-13T01:40:21.907Z,0
2017-04-13T01:41:32.238Z,0
2017-04-13T01:42:42.567Z,0
2017-04-13T01:43:52.933Z,0
2017-04-13T01:45:03.255Z,0
2017-04-13T01:46:13.593Z,0
2017-04-13T01:47:23.617Z,0
2017-04-13T01:48:33.632Z,0
2017-04-13T01:49:43.987Z,0
2017-04-13T01:50:54.315Z,0
2017-04-13T01:52:04.652Z,0
2017-04-13T01:53:14.357Z,0
2017-04-13T01:54:24.376Z,0
2017-04-13T01:55:34.710Z,0
2017-04-13T01:56:45.036Z,0
2017-04-13T01:57:55.424Z,0
2017-04-13T01:59:05.457Z,0
2017-04-13T02:00:15.478Z,0
2017-04-13T02:01:24.560Z,0
2017-04-13T02:02:34.897Z,0
2017-04-13T02:03:44.917Z,0
2017-04-13T02:04:55.245Z,0
2017-04-13T02:06:05.578Z,0
2017-04-13T02:07:15.606Z,0
2017-04-13T02:08:25.951Z,0
2017-04-13T02:09:35.993Z,0
2017-04-13T02:10:46.023Z,0
2017-04-13T02:11:56.040Z,0
2017-04-13T02:13:06.112Z,0
2017-04-13T02:14:16.132Z,0
2017-04-13T02:15:26.479Z,0
2017-04-13T02:16:36.503Z,0
2017-04-13T02:17:46.862Z,0
2017-04-13T02:18:57.206Z,0
2017-04-13T02:20:07.532Z,0
2017-04-13T02:21:17.549Z,0
2017-04-13T02:22:27.552Z,0
2017-04-13T02:23:37.572Z,0
2017-04-13T02:24:47.893Z,0
2017-04-13T02:25:58.243Z,0
2017-04-13T02:27:08.287Z,0
2017-04-13T02:28:18.625Z,0
2017-04-13T02:29:28.946Z,0
2017-04-13T02:30:38.659Z,0
2017-04-13T02:31:48.685Z,0
2017-04-13T02:32:59.026Z,0
2017-04-13T02:34:09.360Z,0
2017-04-13T02:35:19.711Z,0
2017-04-13T02:36:30.043Z,0
2017-04-13T02:37:40.368Z,0
2017-04-13T02:38:50.690Z,0
2017-04-13T02:40:01.025Z,0
2017-04-13T02:41:11.380Z,0
2017-04-13T02:42:21.734Z,0
2017-04-13T02:43:31.457Z,0
2017-04-13T02:44:41.836Z,0
2017-04-13T02:45:51.856Z,0
2017-04-13T02:47:01.557Z,0
2017-04-13T02:48:11.900Z,0
2017-04-13T02:49:21.641Z,0
2017-04-13T02:50:31.660Z,0
2017-04-13T02:51:41.996Z,0
2017-04-13T02:52:52.325Z,0
2017-04-13T02:54:02.356Z,0
2017-04-13T02:55:12.375Z,0
2017-04-13T02:56:22.390Z,0
2017-04-13T02:57:32.419Z,0
2017-04-13T02:58:42.765Z,0
2017-04-13T02:59:53.121Z,0
2017-04-13T03:01:03.456Z,0
2017-04-13T03:33:04.520Z,0
2017-04-13T03:34:14.837Z,0
2017-04-13T03:35:25.179Z,0
2017-04-13T03:36:35.193Z,0
2017-04-13T03:37:45.545Z,0
2017-04-13T03:38:55.608Z,0
2017-04-13T03:40:05.954Z,0
2017-04-13T03:41:16.327Z,0
2017-04-13T03:42:26.658Z,0
2017-04-13T03:43:36.679Z,0
2017-04-13T03:44:47.009Z,0
2017-04-13T03:45:57.041Z,0
2017-04-13T03:47:07.055Z,0
2017-04-13T03:48:17.378Z,0
2017-04-13T03:49:27.720Z,0
2017-04-13T03:50:37.740Z,0
2017-04-13T03:51:47.774Z,4
2017-04-13T03:52:58.105Z,4
2017-04-13T03:54:08.119Z,4
2017-04-13T03:55:18.444Z,0
2017-04-13T03:56:28.773Z,0
2017-04-13T03:57:39.108Z,4
2017-04-13T03:58:49.131Z,4
2017-04-13T03:59:59.479Z,4
2017-04-13T04:01:09.506Z,4
2017-04-13T04:02:19.224Z,4
2017-04-13T04:03:29.234Z,4
2017-04-13T04:04:39.575Z,4
2017-04-13T04:05:49.918Z,8
2017-04-13T04:06:59.623Z,8
2017-04-13T04:08:09.655Z,12
2017-04-13T04:09:19.708Z,12
2017-04-13T04:10:30.041Z,12
2017-04-13T04:11:40.376Z,16
2017-04-13T04:12:50.092Z,20
2017-04-13T04:14:00.159Z,20
2017-04-13T04:15:10.485Z,24
2017-04-13T04:16:20.818Z,28
2017-04-13T04:17:30.885Z,40
2017-04-13T04:18:41.232Z,48
2017-04-13T04:19:51.554Z,48
2017-04-13T04:21:01.577Z,56
2017-04-13T04:22:11.907Z,68
2017-04-13T04:23:22.298Z,80
2017-04-13T04:24:32.637Z,88
2017-04-13T04:25:42.975Z,88
2017-04-13T04:26:53.003Z,92
2017-04-13T04:28:03.330Z,88
2017-04-13T04:29:13.386Z,76
2017-04-13T04:30:23.715Z,72
2017-04-13T04:31:34.069Z,68
2017-04-13T04:32:44.403Z,72
2017-04-13T04:33:54.735Z,76
2017-04-13T04:35:05.063Z,88
2017-04-13T04:36:15.396Z,84
2017-04-13T04:37:25.735Z,88
2017-04-13T04:38:36.065Z,88
2017-04-13T04:39:45.782Z,92
2017-04-13T04:40:55.831Z,96
2017-04-13T04:42:05.854Z,108
2017-04-13T04:43:15.875Z,120
2017-04-13T04:44:26.210Z,140
2017-04-13T04:45:36.543Z,168
2017-04-13T04:46:46.880Z,200
2017-04-13T04:47:57.233Z,216
2017-04-13T04:49:07.576Z,228
2017-04-13T04:50:17.914Z,228
2017-04-13T04:51:27.955Z,228
2017-04-13T04:52:38.336Z,236
2017-04-13T04:53:48.675Z,240
2017-04-13T04:54:58.714Z,240
2017-04-13T04:56:09.057Z,244
2017-04-13T04:57:19.409Z,244
2017-04-13T04:58:29.445Z,252
2017-04-13T04:59:39.461Z,272
2017-04-13T05:00:49.799Z,288
2017-04-13T05:02:00.122Z,308
2017-04-13T05:03:10.459Z,320
2017-04-13T05:04:20.798Z,336
2017-04-13T05:05:31.120Z,356
2017-04-13T05:06:41.095Z,376
2017-04-13T05:07:51.090Z,376
2017-04-13T05:09:01.135Z,348
2017-04-13T05:10:11.472Z,312
2017-04-13T05:11:21.811Z,292
2017-04-13T05:12:32.166Z,300
2017-04-13T05:13:42.487Z,324
2017-04-13T05:14:52.823Z,336
2017-04-13T05:16:02.865Z,348
2017-04-13T05:17:12.896Z,364
2017-04-13T05:18:23.229Z,380
2017-04-13T05:19:32.960Z,392
2017-04-13T05:20:43.293Z,404
2017-04-13T05:21:53.634Z,416
2017-04-13T05:23:03.665Z,420
2017-04-13T05:24:13.707Z,408
2017-04-13T05:25:23.742Z,388
2017-04-13T05:26:33.751Z,384
2017-04-13T05:27:43.771Z,364
2017-04-13T05:28:54.095Z,356
2017-04-13T05:30:04.116Z,348
2017-04-13T05:31:14.479Z,344
2017-04-13T05:32:24.510Z,348
2017-04-13T05:33:34.851Z,364
2017-04-13T05:34:45.179Z,400
2017-04-13T05:35:55.206Z,432
2017-04-13T05:37:05.542Z,448
2017-04-13T05:38:15.875Z,436
2017-04-13T05:39:26.211Z,448
2017-04-13T05:40:36.237Z,476
2017-04-13T05:41:46.256Z,504
2017-04-13T05:42:56.590Z,540
2017-04-13T05:44:06.920Z,576
2017-04-13T05:45:16.953Z,572
2017-04-13T05:46:27.296Z,572
2017-04-13T05:47:37.673Z,568
2017-04-13T05:48:48.015Z,532
2017-04-13T05:49:58.137Z,512
2017-04-13T05:51:08.472Z,536
2017-04-13T05:52:18.496Z,600
2017-04-13T05:53:28.833Z,700
2017-04-13T05:54:39.172Z,804
2017-04-13T05:55:49.248Z,916
2017-04-13T05:56:59.601Z,976
2017-04-13T06:04:42.071Z,864
2017-04-13T06:05:52.107Z,796
2017-04-13T06:07:02.127Z,776
2017-04-13T06:08:12.467Z,820
2017-04-13T06:09:22.808Z,864
2017-04-13T06:10:32.847Z,904
2017-04-13T06:11:43.182Z,1012
2017-04-13T06:12:53.522Z,1048
2017-04-13T06:14:03.849Z,1068
2017-04-13T06:15:13.882Z,1044
2017-04-13T06:16:23.595Z,1064
2017-04-13T06:17:33.616Z,1140
2017-04-13T06:18:43.638Z,1228
2017-04-13T06:19:53.655Z,1308
2017-04-13T06:21:03.982Z,1368
2017-04-13T06:22:14.309Z,1412
2017-04-13T06:23:24.024Z,1444
2017-04-13T06:24:34.342Z,1456
2017-04-13T06:25:44.047Z,1500
2017-04-13T06:26:54.055Z,1512
2017-04-13T06:28:03.781Z,1460
2017-04-13T06:29:13.796Z,1348
2017-04-13T06:30:24.147Z,1168
2017-04-13T06:31:34.186Z,1036
2017-04-13T06:32:44.504Z,1024
2017-04-13T06:33:54.876Z,1032
2017-04-13T06:35:04.883Z,988
2017-04-13T06:36:15.200Z,924
2017-04-13T06:37:25.536Z,940
2017-04-13T06:38:35.906Z,900
2017-04-13T06:39:45.918Z,808
2017-04-13T06:40:56.277Z,780
2017-04-13T06:42:06.611Z,792
2017-04-13T06:43:16.945Z,840
2017-04-13T06:44:27.284Z,840
2017-04-13T06:45:37.617Z,800
2017-04-13T06:46:47.944Z,784
2017-04-13T06:47:57.957Z,828
2017-04-13T06:49:07.661Z,876
2017-04-13T06:50:17.378Z,876
2017-04-13T06:51:27.745Z,880
2017-04-13T06:52:38.088Z,952
2017-04-13T06:53:48.109Z,1000
2017-04-13T06:54:57.825Z,1020
2017-04-13T06:56:08.149Z,996
2017-04-13T06:57:18.484Z,908
2017-04-13T06:58:28.505Z,860
2017-04-13T06:59:37.921Z,852
2017-04-13T07:00:48.254Z,860
2017-04-13T07:01:57.961Z,856
2017-04-13T07:03:08.292Z,860
2017-04-13T07:04:18.345Z,892
2017-04-13T07:05:28.356Z,976
2017-04-13T07:06:38.699Z,1004
2017-04-13T07:07:48.721Z,1036
2017-04-13T07:08:59.101Z,1108
2017-04-13T07:10:09.134Z,1136
2017-04-13T07:11:19.195Z,1068
2017-04-13T07:12:29.537Z,996
2017-04-13T07:13:39.863Z,1012
2017-04-13T07:14:50.224Z,1040
2017-04-13T07:16:00.241Z,1076
2017-04-13T07:17:09.643Z,1092
2017-04-13T07:18:19.665Z,1060
2017-04-13T07:19:29.073Z,1016
2017-04-13T07:20:39.458Z,1012
2017-04-13T07:21:49.477Z,1108
2017-04-13T07:22:59.811Z,1224
2017-04-13T07:24:10.144Z,1272
2017-04-13T07:25:20.719Z,1240
2017-04-13T07:26:30.442Z,1236
2017-04-13T07:27:40.464Z,1280
2017-04-13T07:28:50.841Z,1352
2017-04-13T07:30:01.161Z,1476
2017-04-13T07:31:11.237Z,1636
2017-04-13T07:32:21.575Z,1748
2017-04-13T07:33:31.312Z,1732
2017-04-13T07:34:41.351Z,1684
2017-04-13T07:35:51.414Z,1712
2017-04-13T07:37:01.737Z,1944
2017-04-13T07:38:12.115Z,2388
2017-04-13T07:39:22.161Z,2804
2017-04-13T07:40:31.879Z,2968
2017-04-13T07:41:42.235Z,2684
2017-04-13T07:42:52.561Z,2300
2017-04-13T07:44:02.593Z,2004
2017-04-13T07:45:12.625Z,1856
2017-04-13T07:46:22.640Z,1720
2017-04-13T07:47:32.991Z,1672
2017-04-13T07:48:43.325Z,1660
2017-04-13T07:49:53.668Z,1624
2017-04-13T07:51:03.684Z,1628
2017-04-13T07:52:14.033Z,1784
2017-04-13T07:53:24.401Z,2120
2017-04-13T07:54:34.439Z,2532
2017-04-13T07:55:44.764Z,2748
2017-04-13T07:56:54.778Z,2568
2017-04-13T07:58:05.121Z,2492
2017-04-13T07:59:15.451Z,2612
2017-04-13T08:00:25.777Z,2624
2017-04-13T08:01:36.131Z,2684
2017-04-13T08:02:46.474Z,2772
2017-04-13T08:03:56.807Z,2940
2017-04-13T08:05:07.148Z,2716
2017-04-13T08:06:17.487Z,2408
2017-04-13T08:07:27.834Z,2416
2017-04-13T08:08:38.150Z,2924
2017-04-13T08:09:48.191Z,3636
2017-04-13T08:10:58.203Z,3872
2017-04-13T08:12:08.277Z,3844
2017-04-13T08:13:18.622Z,3956
2017-04-13T08:14:28.952Z,4168
2017-04-13T08:15:38.965Z,3948
2017-04-13T08:16:48.997Z,3924
2017-04-13T08:17:58.712Z,3884
2017-04-13T08:19:09.124Z,3616
2017-04-13T08:20:19.443Z,3200
2017-04-13T08:21:29.758Z,2824
2017-04-13T08:22:40.104Z,2664
2017-04-13T08:23:49.825Z,2624
2017-04-13T08:25:00.173Z,2548
2017-04-13T08:26:10.521Z,2868
2017-04-13T08:27:20.541Z,3556
2017-04-13T08:28:30.879Z,4212
2017-04-13T08:29:41.235Z,4328
2017-04-13T08:30:51.581Z,4184
2017-04-13T08:32:01.968Z,3736
2017-04-13T08:33:12.308Z,3552
2017-04-13T08:34:22.327Z,3760
2017-04-13T08:35:32.655Z,3656
2017-04-13T08:36:42.975Z,3804
2017-04-13T08:37:52.993Z,4072
2017-04-13T08:39:03.327Z,4224
2017-04-13T08:40:13.036Z,3948
2017-04-13T08:41:23.368Z,3280
2017-04-13T08:42:33.730Z,2564
2017-04-13T08:43:44.075Z,2208
2017-04-13T08:44:54.393Z,2484
2017-04-13T08:46:04.735Z,3136
2017-04-13T08:47:15.075Z,3972
2017-04-13T08:48:25.397Z,4652
2017-04-13T08:49:35.719Z,5016
2017-04-13T08:50:45.751Z,5068
2017-04-13T08:51:55.463Z,5004
2017-04-13T08:53:05.485Z,4592
2017-04-13T08:54:15.529Z,4012
2017-04-13T08:55:25.877Z,3600
2017-04-13T08:56:36.209Z,3364
2017-04-13T08:57:46.236Z,3584
2017-04-13T08:58:56.590Z,3808
2017-04-13T09:00:06.931Z,3676
2017-04-13T09:01:17.261Z,3272
2017-04-13T09:02:26.969Z,2712
2017-04-13T09:03:37.004Z,2312
2017-04-13T09:04:47.039Z,2168
2017-04-13T09:05:56.754Z,2088
2017-04-13T09:07:07.085Z,1972
2017-04-13T09:08:17.142Z,1904
2017-04-13T09:09:26.849Z,1860
2017-04-13T09:10:37.184Z,1812
2017-04-13T09:11:47.567Z,1772
2017-04-13T09:12:57.900Z,1656
2017-04-13T09:14:07.305Z,1512
2017-04-13T09:15:17.053Z,1328
2017-04-13T09:16:27.071Z,1336
2017-04-13T09:17:37.094Z,1488
2017-04-13T09:18:47.432Z,1692
2017-04-13T09:19:57.461Z,1804
2017-04-13T09:21:07.176Z,1772
2017-04-13T09:22:17.522Z,1632
2017-04-13T09:23:27.852Z,1524
2017-04-13T09:24:38.191Z,1516
2017-04-13T09:25:48.226Z,1360
2017-04-13T09:26:58.605Z,1332
2017-04-13T09:28:08.946Z,1456
2017-04-13T09:29:18.990Z,1464
2017-04-13T09:30:29.316Z,1400
2017-04-13T09:31:39.638Z,1416
2017-04-13T09:32:49.969Z,1496
2017-04-13T09:33:59.996Z,1644
2017-04-13T09:35:10.331Z,1728
2017-04-13T09:36:20.668Z,1720
2017-04-13T09:37:31.002Z,1640
2017-04-13T09:38:41.328Z,1616
2017-04-13T09:39:51.338Z,1524
2017-04-13T09:41:01.687Z,1320
2017-04-13T09:42:12.034Z,1288
2017-04-13T09:43:22.364Z,1228
2017-04-13T09:44:32.713Z,1204
2017-04-13T09:45:43.047Z,1104
2017-04-13T09:46:53.411Z,1044
2017-04-13T09:48:03.736Z,1124
2017-04-13T09:49:14.067Z,1160
2017-04-13T09:50:24.078Z,1120
2017-04-13T09:51:34.406Z,1024
2017-04-13T09:52:44.742Z,916
2017-04-13T09:53:55.080Z,972
2017-04-13T09:55:05.407Z,960
2017-04-13T09:56:15.743Z,868
2017-04-13T09:57:26.071Z,856
2017-04-13T09:58:36.406Z,904
2017-04-13T09:59:46.443Z,988
2017-04-13T10:00:56.475Z,984
2017-04-13T10:02:06.804Z,1000
2017-04-13T10:03:17.135Z,1004
2017-04-13T10:04:27.455Z,992
2017-04-13T10:05:37.794Z,1088
2017-04-13T10:06:48.145Z,1428
2017-04-13T10:07:58.167Z,1748
2017-04-13T10:09:08.187Z,1592
2017-04-13T10:10:18.514Z,1512
2017-04-13T10:11:28.847Z,1588
2017-04-13T10:12:39.193Z,1596
2017-04-13T10:13:49.533Z,1708
2017-04-13T10:14:59.550Z,2144
2017-04-13T10:16:09.001Z,3240
2017-04-13T10:17:19.331Z,3984
2017-04-13T10:18:29.672Z,3816
2017-04-13T10:19:39.392Z,3816
2017-04-13T10:20:49.754Z,3952
2017-04-13T10:22:00.096Z,4176
2017-04-13T10:23:10.432Z,4148
2017-04-13T10:24:20.155Z,4200
2017-04-13T10:25:30.489Z,4624
2017-04-13T10:26:40.814Z,5396
2017-04-13T10:27:51.151Z,5712
2017-04-13T10:29:01.503Z,5304
2017-04-13T10:30:11.521Z,4896
2017-04-13T10:31:21.856Z,4480
2017-04-13T10:32:31.586Z,4156
2017-04-13T10:33:41.925Z,3980
2017-04-13T10:34:52.264Z,3920
2017-04-13T10:36:02.612Z,4008
2017-04-13T10:37:12.638Z,4104
2017-04-13T10:38:22.982Z,3560
2017-04-13T10:39:33.348Z,2812
2017-04-13T10:40:43.385Z,2300
2017-04-13T10:41:53.714Z,2016
2017-04-13T10:43:03.428Z,1856
2017-04-13T10:44:13.448Z,1800
2017-04-13T10:45:23.777Z,1840
2017-04-13T10:46:33.810Z,1940
2017-04-13T10:47:43.831Z,2004
2017-04-13T10:48:53.862Z,2088
2017-04-13T10:50:04.193Z,2212
2017-04-13T10:51:14.215Z,2624
2017-04-13T10:52:24.236Z,3604
2017-04-13T10:53:34.555Z,4496
2017-04-13T10:54:44.882Z,5216
2017-04-13T10:55:54.602Z,5516
2017-04-13T10:57:04.929Z,5568
2017-04-13T10:58:14.950Z,5648
2017-04-13T10:59:24.966Z,5888
2017-04-13T11:00:35.006Z,6260
2017-04-13T11:01:45.029Z,6928
2017-04-13T11:02:55.367Z,8564
2017-04-13T11:04:05.398Z,6944
2017-04-13T11:05:15.725Z,7120
2017-04-13T11:06:26.071Z,7384
2017-04-13T11:07:37.315Z,7512
2017-04-13T11:08:47.744Z,7376
2017-04-13T11:09:58.077Z,7072
2017-04-13T11:11:08.100Z,6904
2017-04-13T11:12:18.438Z,7064
2017-04-13T11:13:28.777Z,7112
2017-04-13T11:14:38.809Z,6792
2017-04-13T11:15:48.845Z,6436
2017-04-13T11:16:58.252Z,6528
2017-04-13T11:18:08.589Z,6520
2017-04-13T11:19:18.922Z,6016
2017-04-13T11:20:28.993Z,5140
2017-04-13T11:21:39.349Z,4372
2017-04-13T11:22:49.052Z,3712
2017-04-13T11:23:58.131Z,3268
2017-04-13T11:25:08.153Z,3216
2017-04-13T11:26:17.871Z,3392
2017-04-13T11:27:28.222Z,3500
2017-04-13T11:28:38.573Z,3692
2017-04-13T11:29:48.611Z,4084
2017-04-13T11:30:58.958Z,4216
2017-04-13T11:32:09.303Z,3840
2017-04-13T11:33:19.321Z,3212
2017-04-13T11:34:29.666Z,2724
2017-04-13T11:35:39.689Z,2816
2017-04-13T11:36:49.698Z,3204
2017-04-13T11:37:59.726Z,3440
2017-04-13T11:39:09.444Z,3564
2017-04-13T11:40:19.152Z,3668
2017-04-13T11:41:29.494Z,3840
2017-04-13T11:42:39.210Z,4064
2017-04-13T11:43:49.559Z,4356
2017-04-13T11:44:59.884Z,4612
2017-04-13T11:46:09.925Z,4748
2017-04-13T11:47:20.277Z,4756
2017-04-13T11:48:30.620Z,4656
2017-04-13T11:49:41.015Z,4420
2017-04-13T11:50:51.341Z,4364
2017-04-13T11:52:01.059Z,4544
2017-04-13T11:53:11.398Z,4836
2017-04-13T11:54:21.737Z,5288
2017-04-13T11:55:32.066Z,4476
2017-04-13T11:56:42.397Z,6916
2017-04-13T11:57:52.110Z,5820
2017-04-13T11:59:02.440Z,9792
2017-04-13T12:00:12.781Z,9692
2017-04-13T12:01:23.177Z,9948
2017-04-13T12:02:33.514Z,9512
2017-04-13T12:03:43.242Z,8856
2017-04-13T12:04:53.582Z,5436
2017-04-13T12:06:03.806Z,5884
2017-04-13T12:07:13.828Z,5860
2017-04-13T12:08:23.548Z,10208
2017-04-13T12:09:33.585Z,9096
2017-04-13T12:10:43.921Z,6588
2017-04-13T12:11:53.938Z,10872
2017-04-13T12:13:03.970Z,11224
2017-04-13T12:14:13.986Z,7292
2017-04-13T12:15:23.695Z,12720
2017-04-13T12:16:33.425Z,12584
2017-04-13T12:17:43.751Z,13548
2017-04-13T12:18:54.115Z,13540
2017-04-13T12:20:04.475Z,13944
2017-04-13T12:21:14.508Z,8000
2017-04-13T12:22:24.849Z,7712
2017-04-13T12:23:34.875Z,9224
2017-04-13T12:24:45.212Z,5276
2017-04-13T12:25:55.553Z,4324
2017-04-13T12:27:05.905Z,3864
2017-04-13T12:28:15.927Z,3196
2017-04-13T12:29:26.253Z,2816
2017-04-13T12:30:36.586Z,3072
2017-04-13T12:31:46.923Z,4672
2017-04-13T12:32:57.269Z,6108
2017-04-13T12:34:07.607Z,6360
2017-04-13T12:35:17.928Z,5448
2017-04-13T12:36:28.262Z,4824
2017-04-13T12:37:38.615Z,4572
2017-04-13T12:38:48.968Z,4464
2017-04-13T12:39:59.003Z,4556
2017-04-13T12:41:09.340Z,4580
2017-04-13T12:42:19.692Z,4440
2017-04-13T12:43:29.086Z,4060
2017-04-13T12:44:39.106Z,3360
2017-04-13T12:45:49.449Z,2792
2017-04-13T12:46:59.782Z,2320
2017-04-13T12:48:10.171Z,2056
2017-04-13T12:49:20.509Z,2020
2017-04-13T12:50:30.845Z,2044
2017-04-13T12:51:41.185Z,1992
2017-04-13T12:52:50.918Z,1988
2017-04-13T12:54:00.929Z,2268
2017-04-13T12:55:11.271Z,3164
2017-04-13T12:56:21.619Z,4252
2017-04-13T12:57:31.639Z,4780
2017-04-13T12:58:41.672Z,4400
2017-04-13T12:59:52.009Z,3932
2017-04-13T13:01:02.655Z,3584
2017-04-13T13:02:13.809Z,4536
2017-04-13T13:03:24.229Z,4696
2017-04-13T13:04:34.595Z,3504
2017-04-13T13:05:44.932Z,4088
2017-04-13T13:06:55.273Z,5160
2017-04-13T13:08:05.300Z,6332
2017-04-13T13:09:15.650Z,7008
2017-04-13T13:10:25.985Z,7124
2017-04-13T13:11:36.325Z,7096
2017-04-13T13:12:46.658Z,7520
2017-04-13T13:13:57.010Z,8276
2017-04-13T13:15:07.040Z,7052
2017-04-13T13:16:17.388Z,6084
2017-04-13T13:17:27.724Z,4860
2017-04-13T13:18:38.055Z,3848
2017-04-13T13:19:48.100Z,3012
2017-04-13T13:20:57.816Z,2508
2017-04-13T13:22:08.153Z,2572
2017-04-13T13:23:18.503Z,3116
2017-04-13T13:24:28.842Z,3144
2017-04-13T13:25:39.187Z,3348
2017-04-13T13:26:49.533Z,3932
2017-04-13T13:27:59.860Z,4500
2017-04-13T13:29:09.891Z,4768
2017-04-13T13:30:19.603Z,4896
2017-04-13T13:31:29.948Z,4872
2017-04-13T13:32:40.332Z,5240
2017-04-13T13:33:50.363Z,5628
2017-04-13T13:35:00.391Z,5732
2017-04-13T13:36:10.737Z,6220
2017-04-13T13:37:21.091Z,6204
2017-04-13T13:38:31.425Z,5536
2017-04-13T13:39:41.137Z,5216
2017-04-13T13:40:51.173Z,5032
2017-04-13T13:42:01.513Z,4956
2017-04-13T13:43:10.918Z,4820
2017-04-13T13:44:21.248Z,4640
2017-04-13T13:45:31.277Z,4292
2017-04-13T13:46:41.298Z,3836
2017-04-13T13:47:51.630Z,3652
2017-04-13T13:49:01.643Z,3812
2017-04-13T13:50:11.974Z,4148
2017-04-13T13:51:22.319Z,4576
2017-04-13T13:52:32.888Z,4800
2017-04-13T13:53:42.904Z,4940
2017-04-13T13:54:52.920Z,5308
2017-04-13T13:56:02.947Z,6140
2017-04-13T13:57:13.294Z,7308
2017-04-13T13:58:23.629Z,7772
2017-04-13T13:59:33.972Z,10120
2017-04-13T14:00:44.326Z,9180
2017-04-13T14:01:54.370Z,9948
2017-04-13T14:03:04.713Z,9688
2017-04-13T14:04:14.743Z,7912
2017-04-13T14:05:24.764Z,5956
2017-04-13T14:06:35.130Z,5164
2017-04-13T14:07:44.850Z,4936
2017-04-13T14:08:54.900Z,5004
2017-04-13T14:10:05.237Z,5960
2017-04-13T14:11:15.573Z,5916
2017-04-13T14:12:25.912Z,7344
2017-04-13T14:13:36.274Z,6400
2017-04-13T14:14:46.614Z,4916
2017-04-13T14:15:56.952Z,5064
2017-04-13T14:17:07.294Z,4824
2017-04-13T14:18:17.629Z,5076
2017-04-13T14:19:27.675Z,5608
2017-04-13T14:20:38.029Z,9156
2017-04-13T14:21:48.373Z,6108
2017-04-13T14:22:58.399Z,7736
2017-04-13T14:24:08.743Z,9040
2017-04-13T14:25:19.072Z,5408
2017-04-13T14:26:28.794Z,5468
2017-04-13T14:27:38.834Z,5860
2017-04-13T14:28:49.186Z,5932
2017-04-13T14:29:59.540Z,5940
2017-04-13T14:31:09.626Z,9340
2017-04-13T14:32:19.994Z,9440
2017-04-13T14:33:30.328Z,9512
2017-04-13T14:34:40.654Z,9688
2017-04-13T14:35:51.002Z,9560
2017-04-13T14:37:01.024Z,9604
2017-04-13T14:38:11.373Z,9500
2017-04-13T14:39:21.415Z,9320
2017-04-13T14:40:31.462Z,9220
2017-04-13T14:41:41.495Z,9248
2017-04-13T14:42:51.524Z,9224
2017-04-13T14:44:01.878Z,9184
2017-04-13T14:45:12.234Z,9112
2017-04-13T14:46:22.590Z,8752
2017-04-13T14:47:32.634Z,8200
2017-04-13T14:48:42.969Z,7804
2017-04-13T14:49:53.310Z,7504
2017-04-13T14:51:03.025Z,7452
2017-04-13T14:52:13.387Z,7212
2017-04-13T14:53:23.743Z,5584
2017-04-13T14:54:33.478Z,3972
2017-04-13T14:55:43.868Z,3776
2017-04-13T14:56:53.921Z,3688
2017-04-13T14:58:04.285Z,3588
2017-04-13T14:59:14.322Z,3500
2017-04-13T15:00:24.653Z,3328
2017-04-13T15:01:34.987Z,3088
2017-04-13T15:02:45.337Z,2876
2017-04-13T15:03:55.691Z,2772
2017-04-13T15:05:05.433Z,2736
2017-04-13T15:06:15.462Z,2716
2017-04-13T15:07:25.836Z,2740
2017-04-13T15:08:36.175Z,2952
2017-04-13T15:09:46.229Z,3428
2017-04-13T15:10:56.294Z,4012
2017-04-13T15:12:06.654Z,4492
2017-04-13T15:13:16.996Z,4612
2017-04-13T15:14:27.344Z,4412
2017-04-13T15:15:37.677Z,4104
2017-04-13T15:16:47.699Z,3760
2017-04-13T15:17:57.427Z,3500
2017-04-13T15:19:07.787Z,3216
2017-04-13T15:20:18.150Z,3084
2017-04-13T15:21:28.492Z,2996
2017-04-13T15:22:38.504Z,2780
2017-04-13T15:23:48.853Z,2488
2017-04-13T15:24:59.197Z,2244
2017-04-13T15:26:09.228Z,2040
2017-04-13T15:27:19.556Z,1948
2017-04-13T15:28:29.597Z,2024
2017-04-13T15:29:39.932Z,2148
2017-04-13T15:30:50.278Z,2164
2017-04-13T15:32:00.368Z,2076
2017-04-13T15:33:10.412Z,2004
2017-04-13T15:34:20.130Z,1880
2017-04-13T15:35:30.170Z,1720
2017-04-13T15:36:40.509Z,1536
2017-04-13T15:37:50.548Z,1356
2017-04-13T15:39:00.880Z,1208
2017-04-13T15:40:11.218Z,1096
2017-04-13T15:41:21.279Z,976
2017-04-13T15:42:31.610Z,856
2017-04-13T15:43:41.985Z,784
2017-04-13T15:44:52.312Z,736
2017-04-13T15:46:02.360Z,752
2017-04-13T15:47:12.696Z,828
2017-04-13T15:48:23.048Z,924
2017-04-13T15:49:33.389Z,1008
2017-04-13T15:50:43.756Z,1036
2017-04-13T15:51:54.114Z,996
2017-04-13T15:53:04.460Z,952
2017-04-13T15:54:14.515Z,916
2017-04-13T15:55:24.879Z,924
2017-04-13T15:56:34.939Z,992
2017-04-13T15:57:45.291Z,1124
2017-04-13T15:58:55.328Z,1304
2017-04-13T16:00:05.355Z,1448
2017-04-13T16:01:15.720Z,1544
2017-04-13T16:02:26.068Z,1592
2017-04-13T16:03:36.399Z,1652
2017-04-13T16:04:46.438Z,1676
2017-04-13T16:05:56.778Z,1712
2017-04-13T16:07:07.119Z,1744
2017-04-13T16:08:17.453Z,1760
2017-04-13T16:09:27.793Z,1868
2017-04-13T16:10:38.153Z,2052
2017-04-13T16:11:48.512Z,2172
2017-04-13T16:12:58.924Z,2240
2017-04-13T16:14:09.273Z,2340
2017-04-13T16:15:19.614Z,2428
2017-04-13T16:16:29.955Z,2512
2017-04-13T16:17:40.309Z,2440
2017-04-13T16:18:50.656Z,2296
2017-04-13T16:20:01.008Z,2188
2017-04-13T16:21:11.037Z,2168
2017-04-13T16:22:21.382Z,2096
2017-04-13T16:23:31.423Z,2048
2017-04-13T16:24:41.460Z,2056
2017-04-13T16:25:51.494Z,2096
2017-04-13T16:27:01.845Z,2236
2017-04-13T16:28:12.241Z,2352
2017-04-13T16:29:22.613Z,2348
2017-04-13T16:30:32.325Z,2476
2017-04-13T16:31:42.712Z,2560
2017-04-13T16:32:53.059Z,2644
2017-04-13T16:34:03.390Z,2668
2017-04-13T16:35:12.803Z,2704
2017-04-13T16:36:23.144Z,2640
2017-04-13T16:37:33.494Z,2584
2017-04-13T16:38:43.522Z,2416
2017-04-13T16:39:53.863Z,2188